Time,TemperatureF,DewpointF,PressureIn,WindDirection,WindDirectionDegrees,WindSpeedMPH,WindSpeedGustMPH,Humidity,HourlyPrecipIn,Conditions,Clouds,dailyrainin,SoftwareType,DateUTC
2013-11-15 00:00:00,26.6,24.0,30.22,WNW,301,0.0,0.0,90,-99.99,,,0.00,VWS V14.01,2013-11-15 05:00:00,
2013-11-15 00:30:00,26.2,23.7,30.22,WNW,301,0.0,0.0,90,-99.99,,,0.00,VWS V14.01,2013-11-15 05:30:00,
2013-11-15 01:00:00,25.6,23.5,30.22,WNW,301,0.0,0.0,92,-99.99,,,0.00,VWS V14.01,2013-11-15 06:00:00,
2013-11-15 01:30:00,25.8,23.9,30.23,WNW,301,0.0,0.0,92,-99.99,,,0.00,VWS V14.01,2013-11-15 06:30:00,
2013-11-15 02:00:00,25.7,23.7,30.22,WNW,301,0.0,0.0,92,-99.99,,,0.00,VWS V14.01,2013-11-15 07:00:00,
2013-11-15 02:30:00,25.5,23.8,30.23,WNW,301,0.0,0.0,93,-99.99,,,0.00,VWS V14.01,2013-11-15 07:30:00,
2013-11-15 03:00:00,25.1,23.6,30.23,WNW,301,0.0,0.0,94,-99.99,,,0.00,VWS V14.01,2013-11-15 08:00:00,
2013-11-15 03:30:00,24.9,23.5,30.22,WNW,301,0.0,0.0,94,-99.99,,,0.00,VWS V14.01,2013-11-15 08:30:00,
2013-11-15 04:00:00,25.0,23.7,30.22,WNW,301,0.0,0.0,95,-99.99,,,0.00,VWS V14.01,2013-11-15 09:00:00,
2013-11-15 04:30:00,24.9,23.6,30.23,WNW,301,0.0,0.0,95,-99.99,,,0.00,VWS V14.01,2013-11-15 09:30:00,
2013-11-15 05:00:00,24.7,23.6,30.22,WNW,301,0.0,0.0,95,-99.99,,,0.00,VWS V14.01,2013-11-15 10:00:00,
2013-11-15 05:30:00,24.7,23.6,30.22,WNW,301,0.0,0.0,96,-99.99,,,0.00,VWS V14.01,2013-11-15 10:30:00,
2013-11-15 06:00:00,24.8,23.7,30.23,WNW,301,0.0,0.0,96,-99.99,,,0.00,VWS V14.01,2013-11-15 11:00:00,
2013-11-15 06:30:00,24.7,23.7,30.24,WNW,301,0.0,0.0,96,-99.99,,,0.00,VWS V14.01,2013-11-15 11:30:00,
2013-11-15 07:00:00,24.6,23.7,30.24,WNW,301,0.0,0.0,96,-99.99,,,0.00,VWS V14.01,2013-11-15 12:00:00,
2013-11-15 07:30:00,25.1,24.3,30.25,WNW,301,0.0,0.0,97,-99.99,,,0.00,VWS V14.01,2013-11-15 12:30:00,
2013-11-15 08:00:00,25.8,25.0,30.25,WNW,301,0.0,0.0,97,-99.99,,,0.00,VWS V14.01,2013-11-15 13:00:00,
2013-11-15 08:30:00,27.1,26.2,30.26,WNW,301,0.0,0.0,96,-99.99,,,0.00,VWS V14.01,2013-11-15 13:30:00,
2013-11-15 09:00:00,28.6,27.1,30.25,WNW,301,0.0,0.0,94,-99.99,,,0.00,VWS V14.01,2013-11-15 14:00:00,
2013-11-15 09:30:00,30.6,28.2,30.25,WNW,301,0.0,0.0,91,-99.99,,,0.00,VWS V14.01,2013-11-15 14:30:00,
2013-11-15 10:00:00,34.7,29.2,30.24,WNW,301,0.0,0.0,80,-99.99,,,0.00,VWS V14.01,2013-11-15 15:00:00,
2013-11-15 10:30:00,37.9,29.4,30.23,ESE,117,0.0,6.0,71,-99.99,,,0.00,VWS V14.01,2013-11-15 15:30:00,
2013-11-15 11:00:00,41.9,28.1,30.22,SE,134,0.0,8.1,58,-99.99,,,0.00,VWS V14.01,2013-11-15 16:00:00,
2013-11-15 11:30:00,47.5,25.0,30.21,West,266,0.0,11.3,41,-99.99,,,0.00,VWS V14.01,2013-11-15 16:30:00,
2013-11-15 12:00:00,48.7,23.9,30.20,NW,312,0.0,13.9,38,-99.99,,,0.00,VWS V14.01,2013-11-15 17:00:00,
2013-11-15 12:30:00,50.2,24.8,30.19,NW,309,0.0,15.6,37,-99.99,,,0.00,VWS V14.01,2013-11-15 17:30:00,
2013-11-15 13:00:00,50.9,22.5,30.19,WNW,283,4.9,18.8,33,-99.99,,,0.00,VWS V14.01,2013-11-15 18:00:00,
2013-11-15 13:30:00,51.2,23.9,30.18,ESE,107,0.0,12.6,34,-99.99,,,0.00,VWS V14.01,2013-11-15 18:30:00,
2013-11-15 14:00:00,51.5,23.0,30.18,NW,311,0.0,10.0,32,-99.99,,,0.00,VWS V14.01,2013-11-15 19:00:00,
2013-11-15 14:30:00,51.6,23.5,30.18,SE,127,0.0,9.3,33,-99.99,,,0.00,VWS V14.01,2013-11-15 19:30:00,
2013-11-15 15:00:00,51.5,23.2,30.18,SE,125,5.1,8.5,33,-99.99,,,0.00,VWS V14.01,2013-11-15 20:00:00,
2013-11-15 15:30:00,50.8,23.9,30.18,SE,125,0.0,5.1,35,-99.99,,,0.00,VWS V14.01,2013-11-15 20:30:00,
2013-11-15 16:00:00,50.6,23.7,30.18,WNW,302,0.0,8.3,35,-99.99,,,0.00,VWS V14.01,2013-11-15 21:00:00,
2013-11-15 16:30:00,49.9,25.2,30.19,WNW,302,0.0,0.0,38,-99.99,,,0.00,VWS V14.01,2013-11-15 21:30:00,
2013-11-15 17:00:00,48.0,28.4,30.17,WNW,302,0.0,0.0,46,-99.99,,,0.00,VWS V14.01,2013-11-15 22:00:00,
2013-11-15 17:30:00,45.5,29.9,30.17,WNW,302,0.0,0.0,54,-99.99,,,0.00,VWS V14.01,2013-11-15 22:30:00,
2013-11-15 18:00:00,43.3,30.0,30.17,WNW,302,0.0,0.0,59,-99.99,,,0.00,VWS V14.01,2013-11-15 23:00:00,
2013-11-15 18:30:00,42.5,30.8,30.17,WNW,302,0.0,0.0,63,-99.99,,,0.00,VWS V14.01,2013-11-15 23:30:00,
2013-11-15 19:00:00,42.1,30.6,30.18,WNW,302,0.0,0.0,63,-99.99,,,0.00,VWS V14.01,2013-11-16 00:00:00,
2013-11-15 19:30:00,41.6,29.5,30.18,WNW,302,0.0,0.0,62,-99.99,,,0.00,VWS V14.01,2013-11-16 00:30:00,
2013-11-15 20:00:00,41.7,31.2,30.19,WNW,302,0.0,0.0,66,-99.99,,,0.00,VWS V14.01,2013-11-16 01:00:00,
2013-11-15 20:30:00,41.3,30.8,30.20,WNW,302,0.0,0.0,66,-99.99,,,0.00,VWS V14.01,2013-11-16 01:30:00,
2013-11-15 21:00:00,42.5,31.3,30.20,East,86,0.0,7.2,64,-99.99,,,0.00,VWS V14.01,2013-11-16 02:00:00,
2013-11-15 21:30:00,45.4,38.0,30.22,West,281,0.0,5.0,75,-99.99,,,0.00,VWS V14.01,2013-11-16 02:30:00,
2013-11-15 22:00:00,44.6,39.0,30.20,West,281,0.0,0.0,81,-99.99,,,0.00,VWS V14.01,2013-11-16 03:00:00,